createdAt,value
2022-07-31T00:00:17.646Z,6.47
2022-07-31T00:02:44.833Z,6.90
2022-07-31T00:05:11.932Z,5.60
2022-07-31T00:07:39.063Z,5.80
2022-07-31T00:10:07.222Z,5.38
2022-07-31T00:12:37.656Z,5.72
2022-07-31T00:15:07.540Z,6.25
2022-07-31T00:17:34.731Z,6.15
2022-07-31T00:20:02.346Z,7.00
2022-07-31T00:22:29.699Z,6.18
2022-07-31T00:24:57.048Z,6.75
2022-07-31T00:27:24.370Z,7.22
2022-07-31T00:29:51.516Z,6.35
2022-07-31T00:32:19.056Z,6.72
2022-07-31T00:34:46.083Z,6.28
2022-07-31T00:37:13.131Z,6.50
2022-07-31T00:39:40.098Z,6.95
2022-07-31T00:42:24.094Z,7.80
2022-07-31T00:44:52.010Z,6.55
2022-07-31T00:47:23.865Z,5.93
2022-07-31T00:49:52.956Z,7.07
2022-07-31T00:52:20.968Z,8.35
2022-07-31T00:54:48.407Z,7.15
2022-07-31T00:57:15.783Z,7.03
2022-07-31T00:59:43.971Z,8.27
2022-07-31T01:02:11.686Z,7.10
2022-07-31T01:04:41.744Z,7.13
2022-07-31T01:07:08.996Z,7.15
2022-07-31T01:09:35.981Z,6.72
2022-07-31T01:12:23.905Z,7.90
2022-07-31T01:14:58.135Z,8.70
2022-07-31T01:17:27.535Z,7.75
2022-07-31T01:19:55.109Z,7.82
2022-07-31T01:22:41.115Z,7.10
2022-07-31T01:25:45.450Z,10.88
2022-07-31T01:29:00.581Z,7.40
2022-07-31T01:31:49.995Z,8.00
2022-07-31T01:34:27.976Z,8.07
2022-07-31T01:37:07.203Z,7.47
2022-07-31T01:39:42.621Z,7.10
2022-07-31T01:42:15.233Z,7.10
2022-07-31T01:44:48.103Z,7.60
2022-07-31T01:47:17.411Z,8.43
2022-07-31T01:49:46.137Z,7.57
2022-07-31T01:52:15.236Z,7.57
2022-07-31T01:54:44.574Z,7.70
2022-07-31T01:57:17.214Z,8.48
2022-07-31T01:59:54.583Z,8.00
2022-07-31T02:02:43.230Z,7.60
2022-07-31T02:05:13.053Z,7.82
2022-07-31T02:07:45.469Z,8.23
2022-07-31T02:10:15.696Z,7.78
2022-07-31T02:12:45.110Z,7.68
2022-07-31T02:15:15.242Z,7.70
2022-07-31T02:17:46.281Z,8.63
2022-07-31T02:20:24.117Z,8.23
2022-07-31T02:22:55.365Z,8.27
2022-07-31T02:25:22.736Z,7.18
2022-07-31T02:27:57.569Z,10.60
2022-07-31T02:30:39.114Z,7.10
2022-07-31T02:33:11.634Z,6.97
2022-07-31T02:35:44.155Z,7.50
2022-07-31T02:38:22.675Z,13.98
2022-07-31T02:40:57.976Z,7.10
2022-07-31T02:43:27.096Z,6.80
2022-07-31T02:45:57.533Z,7.43
2022-07-31T02:48:26.652Z,7.45
2022-07-31T02:50:56.808Z,6.97
2022-07-31T02:53:24.458Z,6.90
2022-07-31T02:55:54.974Z,8.40
2022-07-31T02:58:22.316Z,9.63
2022-07-31T03:00:59.112Z,7.32
2022-07-31T03:03:26.259Z,7.35
2022-07-31T03:05:53.303Z,7.88
2022-07-31T03:08:20.369Z,6.47
2022-07-31T03:10:51.478Z,7.50
2022-07-31T03:13:21.066Z,6.97
2022-07-31T03:15:50.992Z,6.97
2022-07-31T03:18:21.809Z,6.57
2022-07-31T03:20:53.377Z,6.65
2022-07-31T03:23:23.939Z,6.78
2022-07-31T03:25:56.393Z,6.95
2022-07-31T03:28:23.437Z,6.65
2022-07-31T03:30:56.122Z,6.90
2022-07-31T03:33:26.834Z,7.55
2022-07-31T03:35:54.433Z,6.28
2022-07-31T03:38:40.840Z,7.05
2022-07-31T03:41:11.190Z,7.50
2022-07-31T03:43:47.168Z,7.25
2022-07-31T03:46:20.020Z,7.53
2022-07-31T03:48:48.520Z,6.90
2022-07-31T03:51:16.013Z,7.75
2022-07-31T03:53:44.145Z,7.22
2022-07-31T03:56:24.310Z,7.45
2022-07-31T03:58:52.660Z,9.35
2022-07-31T04:01:21.848Z,6.93
2022-07-31T04:04:00.667Z,6.90
2022-07-31T04:06:38.282Z,7.63
2022-07-31T04:09:10.545Z,10.40
2022-07-31T04:11:45.876Z,6.38
2022-07-31T04:14:12.992Z,7.63
2022-07-31T04:16:39.969Z,6.80
2022-07-31T04:19:07.817Z,6.68
2022-07-31T04:21:34.932Z,5.32
2022-07-31T04:24:01.930Z,5.85
2022-07-31T04:26:56.129Z,7.25
2022-07-31T04:29:28.883Z,4.90
2022-07-31T04:31:56.515Z,4.40
2022-07-31T04:34:30.328Z,4.75
2022-07-31T04:36:57.453Z,5.63
2022-07-31T04:39:24.415Z,4.05
2022-07-31T04:41:52.082Z,4.50
2022-07-31T04:44:21.057Z,4.10
2022-07-31T04:47:03.662Z,4.55
2022-07-31T04:49:34.776Z,5.13
2022-07-31T04:52:05.151Z,3.95
2022-07-31T04:54:32.365Z,4.65
2022-07-31T04:57:00.180Z,4.25
2022-07-31T05:00:00.354Z,3.95
2022-07-31T05:02:14.661Z,4.32
2022-07-31T05:04:41.705Z,4.07
2022-07-31T05:07:08.748Z,4.75
2022-07-31T05:09:36.401Z,4.60
2022-07-31T05:12:06.139Z,4.20
2022-07-31T05:14:33.854Z,6.17
2022-07-31T05:17:01.114Z,4.80
2022-07-31T05:19:42.373Z,4.28
2022-07-31T05:22:21.706Z,5.13
2022-07-31T05:25:07.745Z,4.15
2022-07-31T05:27:36.140Z,4.28
2022-07-31T05:30:08.322Z,4.30
2022-07-31T05:32:35.361Z,3.90
2022-07-31T05:35:02.458Z,5.68
2022-07-31T05:37:29.445Z,4.63
2022-07-31T05:39:59.237Z,4.32
2022-07-31T05:42:46.487Z,5.25
2022-07-31T05:45:47.220Z,4.30
2022-07-31T05:48:15.882Z,3.72
2022-07-31T05:50:43.973Z,3.72
2022-07-31T05:53:13.351Z,4.05
2022-07-31T05:56:03.575Z,4.10
2022-07-31T05:58:41.353Z,4.55
2022-07-31T06:03:51.660Z,4.28
2022-07-31T06:08:53.510Z,4.40
2022-07-31T06:11:20.983Z,4.00
2022-07-31T06:13:48.278Z,4.28
2022-07-31T06:16:21.257Z,4.65
2022-07-31T06:18:48.698Z,4.65
2022-07-31T06:23:41.653Z,4.22
2022-07-31T06:26:26.770Z,4.60
2022-07-31T06:28:54.986Z,4.30
2022-07-31T06:31:22.896Z,3.83
2022-07-31T06:33:53.958Z,4.00
2022-07-31T06:36:25.157Z,4.20
2022-07-31T06:38:59.099Z,4.22
2022-07-31T06:41:44.684Z,5.70
2022-07-31T06:44:31.324Z,4.10
2022-07-31T06:47:18.638Z,5.03
2022-07-31T06:49:53.241Z,3.83
2022-07-31T06:52:20.634Z,3.97
2022-07-31T06:54:48.035Z,4.18
2022-07-31T06:57:15.535Z,4.20
2022-07-31T06:59:43.176Z,4.07
2022-07-31T07:02:10.314Z,3.97
2022-07-31T07:04:56.365Z,4.20
2022-07-31T07:07:24.821Z,4.32
2022-07-31T07:09:59.596Z,4.00
2022-07-31T07:13:02.185Z,5.15
2022-07-31T07:15:33.507Z,5.50
2022-07-31T07:18:00.668Z,4.43
2022-07-31T07:20:39.243Z,4.80
2022-07-31T07:23:06.682Z,4.75
2022-07-31T07:25:55.912Z,3.97
2022-07-31T07:28:30.236Z,4.13
2022-07-31T07:31:01.009Z,4.47
2022-07-31T07:33:40.604Z,4.10
2022-07-31T07:36:23.814Z,3.67
2022-07-31T07:38:56.327Z,3.90
2022-07-31T07:41:25.157Z,3.85
2022-07-31T07:43:53.499Z,4.05
2022-07-31T07:46:23.732Z,3.70
2022-07-31T07:48:54.343Z,3.60
2022-07-31T07:51:38.888Z,5.43
2022-07-31T07:54:41.231Z,4.07
2022-07-31T07:57:28.717Z,4.25
2022-07-31T08:00:15.118Z,5.95
2022-07-31T08:03:50.184Z,4.93
2022-07-31T08:05:40.427Z,3.72
2022-07-31T08:08:07.734Z,4.50
2022-07-31T08:10:43.638Z,3.67
2022-07-31T08:13:33.573Z,3.83
2022-07-31T08:16:29.688Z,3.97
2022-07-31T08:18:59.441Z,4.38
2022-07-31T08:21:26.927Z,4.80
2022-07-31T08:23:55.115Z,4.38
2022-07-31T08:26:22.740Z,4.00
2022-07-31T08:28:55.938Z,5.05
2022-07-31T08:31:24.914Z,3.60
2022-07-31T08:34:30.828Z,4.00
2022-07-31T08:38:02.552Z,3.78
2022-07-31T08:39:50.581Z,4.95
2022-07-31T08:42:18.916Z,3.87
2022-07-31T08:44:47.033Z,3.45
2022-07-31T08:47:18.055Z,3.35
2022-07-31T08:49:49.523Z,3.33
2022-07-31T08:52:22.377Z,3.33
2022-07-31T08:55:06.802Z,3.63
2022-07-31T08:57:37.184Z,3.42
2022-07-31T09:00:13.100Z,3.90
2022-07-31T09:02:43.701Z,5.85
2022-07-31T09:05:20.653Z,3.65
2022-07-31T09:07:48.647Z,3.45
2022-07-31T09:10:29.178Z,3.80
2022-07-31T09:12:57.362Z,3.78
2022-07-31T09:15:30.162Z,3.55
2022-07-31T09:18:00.380Z,3.95
2022-07-31T09:20:29.636Z,3.60
2022-07-31T09:23:09.706Z,3.92
2022-07-31T09:25:52.411Z,3.92
2022-07-31T09:28:23.376Z,3.58
2022-07-31T09:30:56.467Z,3.63
2022-07-31T09:33:46.762Z,3.83
2022-07-31T09:36:33.139Z,4.03
2022-07-31T09:39:27.163Z,6.90
2022-07-31T09:42:16.448Z,4.22
2022-07-31T09:44:52.560Z,3.88
2022-07-31T09:47:24.612Z,4.05
2022-07-31T09:49:56.796Z,4.10
2022-07-31T09:52:26.304Z,4.10
2022-07-31T09:55:16.330Z,4.18
2022-07-31T09:57:59.867Z,4.57
2022-07-31T10:00:35.739Z,4.03
2022-07-31T10:03:03.920Z,3.97
2022-07-31T10:05:32.466Z,4.50
2022-07-31T10:08:02.663Z,5.18
2022-07-31T10:10:53.077Z,4.20
2022-07-31T10:13:25.966Z,4.60
2022-07-31T10:18:57.591Z,3.88
2022-07-31T10:21:54.540Z,4.82
2022-07-31T10:24:31.248Z,3.85
2022-07-31T10:27:07.819Z,4.43
2022-07-31T10:29:41.056Z,5.15
2022-07-31T10:32:10.023Z,4.03
2022-07-31T10:35:00.668Z,4.65
2022-07-31T10:38:26.123Z,4.28
2022-07-31T10:41:09.846Z,4.38
2022-07-31T10:43:54.928Z,4.85
2022-07-31T10:46:32.682Z,4.70
2022-07-31T10:49:13.328Z,5.32
2022-07-31T10:52:13.235Z,5.07
2022-07-31T10:55:22.569Z,5.28
2022-07-31T10:58:16.889Z,5.03
2022-07-31T11:00:52.215Z,4.43
2022-07-31T11:03:22.879Z,4.18
2022-07-31T11:06:08.987Z,4.28
2022-07-31T11:08:56.342Z,4.68
2022-07-31T11:11:49.507Z,4.68
2022-07-31T11:14:36.119Z,4.68
2022-07-31T11:18:23.780Z,4.70
2022-07-31T11:20:32.186Z,5.35
2022-07-31T11:23:08.692Z,5.00
2022-07-31T11:25:37.348Z,4.43
2022-07-31T11:28:30.487Z,4.60
2022-07-31T11:30:59.832Z,7.00
2022-07-31T11:33:42.206Z,6.82
2022-07-31T11:36:14.995Z,4.97
2022-07-31T11:38:46.797Z,6.35
2022-07-31T11:41:15.138Z,4.88
2022-07-31T11:43:47.841Z,5.07
2022-07-31T11:46:26.452Z,8.23
2022-07-31T11:48:54.633Z,5.25
2022-07-31T11:51:22.163Z,4.93
2022-07-31T11:53:51.133Z,5.75
2022-07-31T11:56:26.745Z,5.18
2022-07-31T11:58:58.348Z,5.95
2022-07-31T12:01:29.657Z,6.00
2022-07-31T12:04:08.847Z,6.10
2022-07-31T12:06:37.414Z,6.28
2022-07-31T12:09:05.045Z,5.63
2022-07-31T12:11:32.263Z,7.03
2022-07-31T12:13:59.615Z,5.65
2022-07-31T12:16:26.922Z,5.25
2022-07-31T12:19:01.340Z,5.57
2022-07-31T12:21:34.013Z,5.65
2022-07-31T12:24:02.225Z,5.32
2022-07-31T12:26:33.218Z,4.88
2022-07-31T12:29:08.472Z,5.65
2022-07-31T12:31:54.667Z,4.95
2022-07-31T12:34:36.277Z,5.25
2022-07-31T12:37:10.600Z,4.70
2022-07-31T12:39:59.682Z,5.25
2022-07-31T12:42:39.306Z,5.15
2022-07-31T12:45:19.460Z,5.15
2022-07-31T12:47:51.696Z,5.90
2022-07-31T12:50:21.048Z,5.93
2022-07-31T12:52:48.114Z,6.57
2022-07-31T12:55:17.110Z,5.00
2022-07-31T12:57:50.738Z,5.22
2022-07-31T13:00:23.009Z,7.20
2022-07-31T13:02:52.190Z,7.30
2022-07-31T13:07:46.365Z,6.72
2022-07-31T13:10:20.926Z,5.68
2022-07-31T13:12:51.590Z,8.38
2022-07-31T13:15:22.790Z,6.75
2022-07-31T13:17:50.802Z,7.25
2022-07-31T13:20:18.990Z,6.53
2022-07-31T13:22:46.179Z,7.60
2022-07-31T13:25:13.357Z,6.05
2022-07-31T13:27:41.895Z,6.22
2022-07-31T13:30:09.831Z,5.82
2022-07-31T13:32:37.362Z,7.00
2022-07-31T13:35:25.391Z,6.47
2022-07-31T13:37:53.862Z,6.15
2022-07-31T13:43:08.244Z,6.25
2022-07-31T13:45:35.575Z,6.68
2022-07-31T13:48:06.874Z,7.47
2022-07-31T13:50:37.538Z,6.85
2022-07-31T13:53:04.859Z,7.95
2022-07-31T13:55:32.422Z,7.00
2022-07-31T13:58:01.138Z,7.10
2022-07-31T14:00:29.663Z,7.22
2022-07-31T14:02:57.723Z,8.10
2022-07-31T14:05:26.576Z,6.93
2022-07-31T14:07:55.628Z,8.32
2022-07-31T14:10:23.605Z,6.53
2022-07-31T14:12:50.849Z,8.77
2022-07-31T14:15:18.576Z,7.00
2022-07-31T14:17:46.084Z,7.60
2022-07-31T14:20:13.799Z,6.82
2022-07-31T14:22:41.748Z,7.45
2022-07-31T14:25:12.398Z,7.07
2022-07-31T14:27:39.816Z,6.57
2022-07-31T14:30:10.748Z,6.82
2022-07-31T14:32:41.409Z,7.95
2022-07-31T14:35:08.978Z,6.95
2022-07-31T14:37:36.757Z,7.13
2022-07-31T14:40:07.108Z,7.50
2022-07-31T14:42:34.533Z,6.43
2022-07-31T14:45:03.320Z,6.57
2022-07-31T14:47:31.771Z,6.38
2022-07-31T14:50:08.904Z,7.28
2022-07-31T14:52:38.301Z,6.90
2022-07-31T14:55:06.440Z,6.72
2022-07-31T14:57:33.732Z,7.13
2022-07-31T15:00:01.142Z,6.68
2022-07-31T15:02:28.418Z,6.10
2022-07-31T15:04:58.261Z,6.30
2022-07-31T15:07:46.848Z,6.00
2022-07-31T15:12:41.229Z,6.53
2022-07-31T15:15:09.024Z,5.28
2022-07-31T15:17:36.194Z,5.57
2022-07-31T15:20:03.892Z,5.22
2022-07-31T15:22:31.018Z,5.95
2022-07-31T15:24:57.995Z,5.78
2022-07-31T15:27:25.739Z,5.57
2022-07-31T15:30:04.353Z,5.35
2022-07-31T15:32:36.885Z,5.75
2022-07-31T15:35:06.414Z,5.35
2022-07-31T15:37:35.772Z,6.78
2022-07-31T15:40:05.282Z,7.07
2022-07-31T15:42:33.304Z,7.18
2022-07-31T15:45:00.538Z,7.70
2022-07-31T15:47:27.588Z,8.35
2022-07-31T15:49:54.622Z,7.88
2022-07-31T15:52:21.633Z,7.40
2022-07-31T15:54:51.858Z,7.90
2022-07-31T15:57:23.756Z,6.90
2022-07-31T15:59:54.502Z,6.88
2022-07-31T16:02:23.010Z,5.43
2022-07-31T16:04:52.910Z,6.25
2022-07-31T16:08:28.730Z,5.63
2022-07-31T16:10:15.462Z,5.97
2022-07-31T16:12:47.687Z,6.72
2022-07-31T16:15:16.144Z,5.35
2022-07-31T16:17:43.804Z,6.13
2022-07-31T16:20:20.885Z,5.95
2022-07-31T16:22:57.125Z,7.10
2022-07-31T16:25:25.360Z,5.60
2022-07-31T16:27:52.764Z,6.23
2022-07-31T16:30:20.580Z,5.35
2022-07-31T16:32:47.962Z,6.80
2022-07-31T16:35:15.116Z,4.65
2022-07-31T16:37:52.084Z,4.85
2022-07-31T16:40:30.758Z,4.88
2022-07-31T16:43:01.530Z,5.03
2022-07-31T16:45:30.136Z,4.93
2022-07-31T16:47:57.948Z,4.93
2022-07-31T16:50:25.441Z,4.75
2022-07-31T16:52:54.882Z,5.80
2022-07-31T16:56:00.220Z,4.70
2022-07-31T16:58:12.011Z,5.53
2022-07-31T17:00:39.746Z,4.70
2022-07-31T17:03:07.135Z,5.25
2022-07-31T17:05:54.183Z,5.00
2022-07-31T17:08:21.768Z,5.18
2022-07-31T17:10:53.929Z,5.75
2022-07-31T17:13:22.421Z,4.95
2022-07-31T17:15:49.526Z,4.65
2022-07-31T17:18:16.593Z,5.47
2022-07-31T17:20:47.237Z,4.97
2022-07-31T17:23:14.917Z,5.55
2022-07-31T17:25:42.877Z,5.28
2022-07-31T17:28:15.007Z,4.95
2022-07-31T17:30:42.841Z,6.82
2022-07-31T17:33:10.042Z,5.15
2022-07-31T17:35:37.686Z,4.32
2022-07-31T17:38:04.948Z,4.90
2022-07-31T17:40:43.478Z,4.93
2022-07-31T17:43:11.225Z,4.88
2022-07-31T17:48:27.798Z,4.53
2022-07-31T17:50:54.740Z,4.32
2022-07-31T17:53:21.816Z,4.60
2022-07-31T17:55:49.970Z,5.25
2022-07-31T17:58:17.403Z,4.28
2022-07-31T18:00:44.337Z,4.75
2022-07-31T18:03:11.466Z,6.90
2022-07-31T18:05:38.631Z,4.95
2022-07-31T18:08:05.905Z,4.57
2022-07-31T18:10:53.631Z,4.55
2022-07-31T18:13:20.146Z,4.85
2022-07-31T18:15:47.400Z,4.82
2022-07-31T18:18:14.494Z,4.78
2022-07-31T18:20:45.218Z,4.25
2022-07-31T18:23:12.731Z,4.38
2022-07-31T18:28:09.108Z,4.65
2022-07-31T18:30:38.961Z,5.38
2022-07-31T18:33:06.209Z,4.72
2022-07-31T18:35:33.323Z,5.60
2022-07-31T18:38:00.555Z,4.70
2022-07-31T18:40:27.620Z,4.95
2022-07-31T18:42:54.602Z,5.05
2022-07-31T18:45:23.697Z,4.63
2022-07-31T18:47:51.446Z,4.72
2022-07-31T18:51:00.226Z,4.47
2022-07-31T18:53:05.407Z,4.78
2022-07-31T18:55:32.379Z,4.78
2022-07-31T18:57:59.568Z,5.28
2022-07-31T19:00:26.711Z,4.72
2022-07-31T19:02:53.833Z,5.68
2022-07-31T19:05:21.685Z,4.68
2022-07-31T19:07:49.480Z,5.43
2022-07-31T19:10:29.354Z,5.13
2022-07-31T19:12:58.433Z,5.55
2022-07-31T19:15:25.505Z,4.75
2022-07-31T19:17:52.657Z,5.80
2022-07-31T19:20:50.893Z,6.50
2022-07-31T19:23:14.829Z,4.90
2022-07-31T19:26:02.993Z,5.22
2022-07-31T19:28:33.918Z,5.20
2022-07-31T19:31:01.199Z,6.22
2022-07-31T19:33:28.229Z,6.05
2022-07-31T19:36:01.277Z,5.65
2022-07-31T19:38:30.373Z,5.72
2022-07-31T19:40:57.366Z,5.82
2022-07-31T19:43:24.448Z,6.00
2022-07-31T19:46:09.456Z,5.78
2022-07-31T19:48:45.892Z,5.07
2022-07-31T19:51:14.521Z,5.53
2022-07-31T19:53:42.493Z,5.53
2022-07-31T19:56:11.010Z,5.18
2022-07-31T19:58:41.329Z,4.90
2022-07-31T20:01:10.606Z,6.53
2022-07-31T20:03:37.994Z,7.05
2022-07-31T20:06:05.149Z,5.70
2022-07-31T20:08:32.851Z,5.53
2022-07-31T20:11:03.660Z,5.10
2022-07-31T20:13:36.201Z,6.40
2022-07-31T20:16:03.575Z,8.05
2022-07-31T20:18:30.865Z,6.78
2022-07-31T20:21:00.569Z,4.18
2022-07-31T20:23:28.121Z,5.60
2022-07-31T20:25:55.416Z,5.88
2022-07-31T20:28:22.779Z,4.50
2022-07-31T20:30:49.886Z,6.05
2022-07-31T20:33:17.271Z,5.20
2022-07-31T20:35:47.851Z,4.95
2022-07-31T20:38:18.168Z,5.38
2022-07-31T20:40:52.781Z,5.38
2022-07-31T20:43:21.378Z,5.38
2022-07-31T20:45:48.678Z,5.45
2022-07-31T20:48:21.126Z,5.40
2022-07-31T20:50:48.654Z,6.55
2022-07-31T20:53:19.619Z,4.63
2022-07-31T20:55:49.551Z,5.70
2022-07-31T20:58:24.572Z,5.40
2022-07-31T21:00:52.973Z,5.47
2022-07-31T21:03:20.843Z,8.32
2022-07-31T21:05:48.462Z,5.38
2022-07-31T21:08:16.336Z,5.72
2022-07-31T21:10:44.083Z,5.45
2022-07-31T21:13:11.362Z,5.60
2022-07-31T21:15:42.314Z,5.65
2022-07-31T21:18:15.586Z,5.30
2022-07-31T21:20:52.013Z,5.53
2022-07-31T21:23:22.822Z,6.55
2022-07-31T21:25:55.525Z,5.35
2022-07-31T21:28:24.256Z,5.53
2022-07-31T21:30:53.820Z,5.83
2022-07-31T21:33:21.408Z,5.40
2022-07-31T21:35:48.926Z,5.63
2022-07-31T21:38:17.259Z,5.60
2022-07-31T21:40:45.275Z,5.82
2022-07-31T21:43:18.619Z,5.28
2022-07-31T21:45:55.658Z,6.78
2022-07-31T21:48:26.599Z,5.90
2022-07-31T21:50:54.708Z,5.77
2022-07-31T21:53:23.320Z,5.40
2022-07-31T21:55:50.670Z,5.75
2022-07-31T21:58:18.005Z,4.90
2022-07-31T22:00:45.327Z,5.68
2022-07-31T22:03:12.545Z,4.97
2022-07-31T22:05:58.088Z,7.18
2022-07-31T22:08:25.480Z,5.03
2022-07-31T22:10:52.925Z,5.50
2022-07-31T22:13:20.824Z,5.50
2022-07-31T22:15:51.300Z,5.53
2022-07-31T22:21:01.353Z,5.85
2022-07-31T22:23:29.144Z,5.75
2022-07-31T22:25:56.687Z,6.25
2022-07-31T22:28:25.447Z,5.95
2022-07-31T22:30:53.326Z,6.05
2022-07-31T22:33:21.416Z,5.80
2022-07-31T22:35:58.548Z,5.40
2022-07-31T22:38:29.729Z,6.10
2022-07-31T22:41:01.152Z,6.25
2022-07-31T22:44:11.287Z,6.93
2022-07-31T22:46:17.064Z,5.53
2022-07-31T22:48:45.923Z,5.57
2022-07-31T22:51:14.948Z,6.47
2022-07-31T22:53:43.845Z,6.05
2022-07-31T22:56:10.969Z,5.72
2022-07-31T22:58:38.194Z,6.90
2022-07-31T23:01:05.176Z,6.07
2022-07-31T23:03:32.291Z,5.57
2022-07-31T23:06:03.049Z,6.53
2022-07-31T23:08:53.670Z,5.97
2022-07-31T23:11:25.583Z,6.10
2022-07-31T23:13:52.995Z,5.40
2022-07-31T23:16:20.753Z,5.93
2022-07-31T23:18:49.338Z,5.60
2022-07-31T23:21:17.256Z,5.25
2022-07-31T23:23:49.007Z,5.22
2022-07-31T23:26:21.359Z,5.18
2022-07-31T23:28:48.648Z,4.80
2022-07-31T23:31:15.714Z,5.00
2022-07-31T23:33:43.300Z,5.18
2022-07-31T23:36:10.782Z,5.50
2022-07-31T23:38:38.265Z,5.07
2022-07-31T23:41:05.463Z,6.20
2022-07-31T23:43:32.630Z,4.88
2022-07-31T23:45:59.612Z,5.90
2022-07-31T23:48:30.060Z,4.68
2022-07-31T23:50:58.188Z,5.30
2022-07-31T23:53:25.315Z,5.32
2022-07-31T23:55:52.353Z,5.18
2022-07-31T23:58:19.420Z,5.15
